createdAt,value
2023-02-22T00:01:36.178Z,100074.78
2023-02-22T00:04:04.933Z,100071.94
2023-02-22T00:06:32.138Z,100086.34
2023-02-22T00:08:59.745Z,100087.16
2023-02-22T00:11:26.890Z,100088.16
2023-02-22T00:13:54.358Z,100083.00
2023-02-22T00:16:22.786Z,100074.50
2023-02-22T00:18:50.794Z,100078.94
2023-02-22T00:21:18.539Z,100081.06
2023-02-22T00:23:47.133Z,100081.19
2023-02-22T00:26:15.725Z,100078.22
2023-02-22T00:28:42.468Z,100080.41
2023-02-22T00:31:09.121Z,100077.09
2023-02-22T00:33:35.696Z,100076.91
2023-02-22T00:36:02.505Z,100081.84
2023-02-22T00:38:29.083Z,100084.72
2023-02-22T00:40:55.796Z,100085.06
2023-02-22T00:43:22.485Z,100093.84
2023-02-22T00:45:49.179Z,100091.81
2023-02-22T00:48:15.867Z,100089.72
2023-02-22T00:50:42.570Z,100097.94
2023-02-22T00:53:09.351Z,100097.38
2023-02-22T00:55:37.721Z,100099.28
2023-02-22T00:58:06.123Z,100085.81
2023-02-22T01:00:36.231Z,100096.78
2023-02-22T01:03:03.710Z,100091.72
2023-02-22T01:05:31.567Z,100085.88
2023-02-22T01:08:01.384Z,100090.97
2023-02-22T01:10:30.041Z,100084.22
2023-02-22T01:12:57.566Z,100088.63
2023-02-22T01:15:26.151Z,100082.03
2023-02-22T01:17:53.711Z,100085.59
2023-02-22T01:20:22.553Z,100077.56
2023-02-22T01:22:50.949Z,100085.25
2023-02-22T01:25:20.429Z,100076.09
2023-02-22T01:27:47.223Z,100084.28
2023-02-22T01:30:15.345Z,100079.72
2023-02-22T01:32:43.146Z,100079.75
2023-02-22T01:35:13.705Z,100079.34
2023-02-22T01:37:41.539Z,100077.94
2023-02-22T01:40:10.703Z,100075.56
2023-02-22T01:42:37.519Z,100078.72
2023-02-22T01:45:32.123Z,100082.28
2023-02-22T01:48:47.866Z,100075.44
2023-02-22T01:51:21.390Z,100068.34
2023-02-22T01:53:49.555Z,100077.78
2023-02-22T01:56:18.776Z,100081.94
2023-02-22T01:58:51.246Z,100074.63
2023-02-22T02:01:20.501Z,100073.19
2023-02-22T02:03:47.608Z,100074.91
2023-02-22T02:06:15.728Z,100077.41
2023-02-22T02:09:01.019Z,100075.06
2023-02-22T02:11:28.520Z,100072.06
2023-02-22T02:13:57.282Z,100071.75
2023-02-22T02:16:31.981Z,100074.56
2023-02-22T02:18:58.645Z,100071.44
2023-02-22T02:21:42.833Z,100062.13
2023-02-22T02:24:12.597Z,100076.78
2023-02-22T02:26:57.449Z,100065.91
2023-02-22T02:29:38.774Z,100057.38
2023-02-22T02:32:42.690Z,100059.94
2023-02-22T02:35:43.374Z,100066.97
2023-02-22T02:38:33.749Z,100068.34
2023-02-22T02:41:20.348Z,100065.66
2023-02-22T02:44:05.496Z,100069.75
2023-02-22T02:46:37.144Z,100067.50
2023-02-22T02:49:15.713Z,100071.94
2023-02-22T02:51:50.544Z,100069.34
2023-02-22T02:54:19.509Z,100075.50
2023-02-22T02:56:46.543Z,100072.03
2023-02-22T02:59:32.994Z,100077.19
2023-02-22T03:02:24.294Z,100071.03
2023-02-22T03:05:09.447Z,100070.88
2023-02-22T03:07:58.080Z,100077.16
2023-02-22T03:10:35.040Z,100075.38
2023-02-22T03:13:13.661Z,100087.06
2023-02-22T03:15:43.253Z,100076.44
2023-02-22T03:18:28.169Z,100078.38
2023-02-22T03:21:22.555Z,100079.22
2023-02-22T03:23:49.075Z,100073.97
2023-02-22T03:26:23.658Z,100076.56
2023-02-22T03:28:53.226Z,100080.91
2023-02-22T03:31:31.469Z,100083.56
2023-02-22T03:34:05.205Z,100077.66
2023-02-22T03:36:39.834Z,100081.19
2023-02-22T03:39:12.157Z,100075.94
2023-02-22T03:41:40.616Z,100080.25
2023-02-22T03:44:12.222Z,100078.44
2023-02-22T03:46:41.258Z,100075.84
2023-02-22T03:49:16.806Z,100082.75
2023-02-22T03:51:43.505Z,100077.66
2023-02-22T03:54:11.568Z,100081.25
2023-02-22T03:57:03.555Z,100086.72
2023-02-22T03:59:30.834Z,100087.66
2023-02-22T04:01:58.030Z,100086.00
2023-02-22T04:04:25.479Z,100090.25
2023-02-22T04:06:52.625Z,100091.72
2023-02-22T04:09:19.849Z,100093.53
2023-02-22T04:11:47.143Z,100097.19
2023-02-22T04:14:13.962Z,100097.72
2023-02-22T04:16:40.526Z,100106.00
2023-02-22T04:19:07.253Z,100106.22
2023-02-22T04:21:33.898Z,100095.72
2023-02-22T04:24:00.558Z,100099.97
2023-02-22T04:26:27.311Z,100095.56
2023-02-22T04:28:53.916Z,100104.19
2023-02-22T04:31:20.827Z,100086.72
2023-02-22T04:33:47.693Z,100089.66
2023-02-22T04:36:14.447Z,100091.13
2023-02-22T04:38:43.101Z,100097.34
2023-02-22T04:41:09.731Z,100096.47
2023-02-22T04:43:36.346Z,100097.38
2023-02-22T04:46:02.982Z,100103.31
2023-02-22T04:48:29.652Z,100099.25
2023-02-22T04:50:56.327Z,100101.13
2023-02-22T04:53:22.933Z,100104.81
2023-02-22T04:55:49.559Z,100096.09
2023-02-22T04:58:16.221Z,100099.41
2023-02-22T05:00:42.837Z,100100.91
2023-02-22T05:03:09.725Z,100100.81
2023-02-22T05:05:36.456Z,100099.88
2023-02-22T05:08:03.295Z,100099.97
2023-02-22T05:10:29.913Z,100099.09
2023-02-22T05:12:56.642Z,100104.16
2023-02-22T05:15:23.746Z,100101.53
2023-02-22T05:17:50.376Z,100102.66
2023-02-22T05:20:29.675Z,100104.59
2023-02-22T05:22:57.962Z,100099.63
2023-02-22T05:25:25.447Z,100116.13
2023-02-22T05:27:54.574Z,100109.25
2023-02-22T05:30:28.577Z,100111.09
2023-02-22T05:32:55.642Z,100116.31
2023-02-22T05:35:23.294Z,100130.25
2023-02-22T05:37:50.672Z,100125.91
2023-02-22T05:40:21.970Z,100129.34
2023-02-22T05:42:50.275Z,100123.25
2023-02-22T05:45:19.694Z,100126.69
2023-02-22T05:47:47.379Z,100130.94
2023-02-22T05:50:15.570Z,100133.56
2023-02-22T05:52:42.397Z,100131.91
2023-02-22T05:55:11.071Z,100143.16
2023-02-22T05:57:37.783Z,100147.41
2023-02-22T06:00:06.637Z,100148.19
2023-02-22T06:02:33.856Z,100151.78
2023-02-22T06:05:00.617Z,100157.94
2023-02-22T06:07:27.415Z,100163.06
2023-02-22T06:09:54.020Z,100158.69
2023-02-22T06:12:20.767Z,100164.91
2023-02-22T06:14:47.400Z,100163.13
2023-02-22T06:17:15.998Z,100179.72
2023-02-22T06:19:42.689Z,100175.44
2023-02-22T06:22:19.379Z,100178.88
2023-02-22T06:24:46.025Z,100183.25
2023-02-22T06:27:12.776Z,100187.63
2023-02-22T06:29:39.395Z,100184.13
2023-02-22T06:32:05.984Z,100186.75
2023-02-22T06:34:32.691Z,100191.09
2023-02-22T06:37:00.109Z,100187.59
2023-02-22T06:39:26.797Z,100194.53
2023-02-22T06:41:53.463Z,100193.63
2023-02-22T06:44:20.106Z,100201.53
2023-02-22T06:46:48.977Z,100198.03
2023-02-22T06:49:15.573Z,100198.91
2023-02-22T06:51:42.318Z,100191.94
2023-02-22T06:54:08.956Z,100195.44
2023-02-22T06:56:35.540Z,100202.38
2023-02-22T06:59:02.840Z,100196.31
2023-02-22T07:01:29.647Z,100195.38
2023-02-22T07:03:56.860Z,100199.66
2023-02-22T07:06:23.572Z,100206.66
2023-02-22T07:08:50.200Z,100200.44
2023-02-22T07:11:19.432Z,100196.06
2023-02-22T07:13:46.251Z,100193.44
2023-02-22T07:16:12.910Z,100203.72
2023-02-22T07:18:39.537Z,100194.13
2023-02-22T07:21:06.899Z,100194.09
2023-02-22T07:23:33.835Z,100194.88
2023-02-22T07:26:01.577Z,100196.56
2023-02-22T07:28:28.328Z,100194.81
2023-02-22T07:30:55.173Z,100192.09
2023-02-22T07:33:21.836Z,100198.91
2023-02-22T07:35:50.911Z,100204.50
2023-02-22T07:38:19.551Z,100200.78
2023-02-22T07:40:46.765Z,100197.47
2023-02-22T07:43:17.778Z,100196.75
2023-02-22T07:45:45.369Z,100201.13
2023-02-22T07:48:13.094Z,100201.16
2023-02-22T07:50:40.042Z,100194.97
2023-02-22T07:53:11.991Z,100194.94
2023-02-22T07:55:38.640Z,100194.75
2023-02-22T07:58:07.360Z,100198.09
2023-02-22T08:00:36.831Z,100193.50
2023-02-22T08:03:06.416Z,100196.84
2023-02-22T08:05:35.226Z,100200.28
2023-02-22T08:08:01.964Z,100202.78
2023-02-22T08:10:29.791Z,100201.03
2023-02-22T08:12:56.498Z,100210.50
2023-02-22T08:15:24.858Z,100207.72
2023-02-22T08:17:51.997Z,100210.22
2023-02-22T08:20:18.851Z,100211.00
2023-02-22T08:22:46.622Z,100215.19
2023-02-22T08:25:15.050Z,100218.75
2023-02-22T08:27:42.163Z,100221.25
2023-02-22T08:30:14.886Z,100217.44
2023-02-22T08:32:41.547Z,100215.28
2023-02-22T08:35:08.649Z,100224.41
2023-02-22T08:37:35.340Z,100227.13
2023-02-22T08:40:02.083Z,100227.28
2023-02-22T08:42:28.721Z,100230.66
2023-02-22T08:44:55.354Z,100234.16
2023-02-22T08:47:22.002Z,100229.75
2023-02-22T08:49:48.633Z,100229.63
2023-02-22T08:52:15.273Z,100225.66
2023-02-22T08:54:41.925Z,100228.72
2023-02-22T08:57:08.576Z,100222.56
2023-02-22T08:59:35.175Z,100226.00
2023-02-22T09:02:01.873Z,100235.09
2023-02-22T09:04:28.494Z,100225.75
2023-02-22T09:06:55.438Z,100227.13
2023-02-22T09:09:22.030Z,100229.53
2023-02-22T09:11:50.483Z,100228.13
2023-02-22T09:14:18.690Z,100228.97
2023-02-22T09:16:45.390Z,100227.44
2023-02-22T09:19:12.563Z,100227.81
2023-02-22T09:21:39.664Z,100219.66
2023-02-22T09:24:07.609Z,100226.38
2023-02-22T09:26:38.345Z,100217.50
2023-02-22T09:29:09.376Z,100219.03
2023-02-22T09:31:37.525Z,100228.00
2023-02-22T09:34:08.058Z,100217.41
2023-02-22T09:36:34.691Z,100213.31
2023-02-22T09:39:01.303Z,100220.50
2023-02-22T09:41:43.847Z,100207.31
2023-02-22T09:44:20.641Z,100216.31
2023-02-22T09:46:49.652Z,100214.03
2023-02-22T09:49:23.272Z,100217.81
2023-02-22T09:52:00.253Z,100214.72
2023-02-22T09:54:43.224Z,100208.72
2023-02-22T09:57:16.276Z,100207.41
2023-02-22T10:00:08.368Z,100210.53
2023-02-22T10:02:44.405Z,100210.31
2023-02-22T10:05:19.902Z,100199.22
2023-02-22T10:08:00.585Z,100204.72
2023-02-22T10:10:32.931Z,100200.63
2023-02-22T10:13:05.348Z,100203.09
2023-02-22T10:15:50.259Z,100204.84
2023-02-22T10:18:32.020Z,100203.00
2023-02-22T10:21:19.696Z,100201.75
2023-02-22T10:23:59.296Z,100200.63
2023-02-22T10:26:31.154Z,100198.19
2023-02-22T10:29:20.309Z,100196.97
2023-02-22T10:32:07.307Z,100186.94
2023-02-22T10:34:40.728Z,100191.88
2023-02-22T10:37:26.901Z,100187.75
2023-02-22T10:39:59.388Z,100189.84
2023-02-22T10:42:27.800Z,100187.66
2023-02-22T10:44:54.647Z,100183.91
2023-02-22T10:47:22.183Z,100182.97
2023-02-22T10:56:11.141Z,100163.13
2023-02-22T11:30:34.214Z,100148.84
2023-02-22T11:33:00.834Z,100143.53
2023-02-22T11:35:35.670Z,100146.47
2023-02-22T11:38:22.658Z,100146.53
2023-02-22T11:41:13.911Z,100139.13
2023-02-22T11:43:41.939Z,100140.88
2023-02-22T11:46:21.733Z,100146.19
2023-02-22T11:48:57.741Z,100144.00
2023-02-22T11:51:45.631Z,100147.78
2023-02-22T11:54:18.172Z,100148.13
2023-02-22T11:56:52.759Z,100140.31
2023-02-22T12:00:08.737Z,100143.22
2023-02-22T12:02:58.462Z,100138.75
2023-02-22T12:05:53.777Z,100141.47
2023-02-22T12:08:49.316Z,100135.50
2023-02-22T12:11:39.407Z,100136.09
2023-02-22T12:14:26.579Z,100135.41
2023-02-22T12:17:02.150Z,100131.69
2023-02-22T12:19:43.948Z,100132.78
2023-02-22T12:22:20.619Z,100130.50
2023-02-22T12:25:07.736Z,100127.91
2023-02-22T12:27:48.156Z,100126.47
2023-02-22T12:30:31.209Z,100127.66
2023-02-22T12:33:06.500Z,100128.16
2023-02-22T12:35:44.493Z,100121.81
2023-02-22T12:38:28.582Z,100116.34
2023-02-22T12:41:10.279Z,100112.19
2023-02-22T12:43:56.363Z,100117.09
2023-02-22T12:46:37.500Z,100115.34
2023-02-22T12:49:24.418Z,100111.59
2023-02-22T12:52:21.357Z,100113.16
2023-02-22T12:55:02.168Z,100105.44
2023-02-22T12:57:56.936Z,100102.53
2023-02-22T13:00:23.499Z,100106.94
2023-02-22T13:03:00.822Z,100095.72
2023-02-22T13:05:34.908Z,100101.31
2023-02-22T13:08:14.386Z,100098.09
2023-02-22T13:11:06.864Z,100094.88
2023-02-22T13:13:47.354Z,100095.66
2023-02-22T13:16:32.260Z,100099.06
2023-02-22T13:19:26.388Z,100095.13
2023-02-22T13:21:54.892Z,100088.28
2023-02-22T13:24:56.060Z,100094.44
2023-02-22T13:27:46.752Z,100101.09
2023-02-22T13:30:22.171Z,100105.91
2023-02-22T13:32:48.730Z,100094.25
2023-02-22T13:35:50.484Z,100097.94
2023-02-22T13:38:38.307Z,100095.03
2023-02-22T13:41:10.475Z,100094.84
2023-02-22T13:44:16.450Z,100099.59
2023-02-22T13:47:12.182Z,100095.31
2023-02-22T13:49:56.845Z,100089.94
2023-02-22T13:52:28.021Z,100088.28
2023-02-22T13:55:07.737Z,100094.56
2023-02-22T13:57:40.407Z,100097.66
2023-02-22T14:00:16.235Z,100102.53
2023-02-22T14:03:02.500Z,100097.88
2023-02-22T14:05:42.456Z,100092.72
2023-02-22T14:08:18.155Z,100092.75
2023-02-22T14:10:56.968Z,100088.13
2023-02-22T14:13:25.769Z,100091.13
2023-02-22T14:15:58.462Z,100092.78
2023-02-22T14:18:29.966Z,100085.28
2023-02-22T14:21:08.248Z,100085.31
2023-02-22T14:23:44.974Z,100083.94
2023-02-22T14:26:18.108Z,100089.56
2023-02-22T14:28:57.090Z,100093.09
2023-02-22T14:31:36.001Z,100096.59
2023-02-22T14:34:16.016Z,100087.72
2023-02-22T14:36:51.343Z,100090.25
2023-02-22T14:39:39.645Z,100097.16
2023-02-22T14:42:14.166Z,100091.22
2023-02-22T14:44:48.445Z,100092.84
2023-02-22T14:47:21.391Z,100086.13
2023-02-22T14:49:52.601Z,100086.53
2023-02-22T14:52:27.190Z,100078.91
2023-02-22T14:55:05.550Z,100083.47
2023-02-22T14:57:45.110Z,100078.38
2023-02-22T15:00:19.053Z,100081.81
2023-02-22T15:02:50.868Z,100075.09
2023-02-22T15:05:19.775Z,100079.16
2023-02-22T15:07:59.180Z,100082.50
2023-02-22T15:10:30.036Z,100075.47
2023-02-22T15:13:03.398Z,100080.00
2023-02-22T15:15:31.095Z,100077.34
2023-02-22T15:17:58.622Z,100075.00
2023-02-22T15:20:28.927Z,100074.41
2023-02-22T15:23:00.052Z,100074.53
2023-02-22T15:25:29.612Z,100077.00
2023-02-22T15:28:02.736Z,100073.25
2023-02-22T15:30:33.293Z,100079.00
2023-02-22T15:33:18.077Z,100074.03
2023-02-22T15:35:44.960Z,100073.34
2023-02-22T15:38:11.620Z,100070.44
2023-02-22T15:40:40.300Z,100068.63
2023-02-22T15:43:07.785Z,100065.16
2023-02-22T15:45:35.196Z,100066.38
2023-02-22T15:48:01.971Z,100062.38
2023-02-22T15:50:34.058Z,100062.84
2023-02-22T15:53:03.315Z,100063.34
2023-02-22T15:55:42.363Z,100068.66
2023-02-22T15:58:15.046Z,100062.19
2023-02-22T16:00:44.346Z,100067.00
2023-02-22T16:03:21.190Z,100068.72
2023-02-22T16:05:51.467Z,100063.28
2023-02-22T16:08:25.077Z,100070.13
2023-02-22T16:10:59.696Z,100065.44
2023-02-22T16:13:32.423Z,100065.84
2023-02-22T16:16:01.759Z,100075.59
2023-02-22T16:18:34.516Z,100066.59
2023-02-22T16:21:07.865Z,100069.94
2023-02-22T16:23:47.414Z,100070.31
2023-02-22T16:26:25.040Z,100071.59
2023-02-22T16:29:00.303Z,100079.41
2023-02-22T16:31:32.906Z,100080.63
2023-02-22T16:34:00.940Z,100077.97
2023-02-22T16:36:42.935Z,100076.47
2023-02-22T16:39:31.927Z,100082.94
2023-02-22T16:42:01.485Z,100086.06
2023-02-22T16:44:29.197Z,100087.16
2023-02-22T16:46:58.605Z,100088.81
2023-02-22T16:49:25.904Z,100088.81
2023-02-22T16:51:55.278Z,100088.22
2023-02-22T16:54:44.221Z,100098.13
2023-02-22T16:57:22.669Z,100096.59
2023-02-22T16:59:50.595Z,100095.09
2023-02-22T17:02:17.246Z,100098.22
2023-02-22T17:04:44.087Z,100098.06
2023-02-22T17:07:10.660Z,100098.72
2023-02-22T17:09:37.354Z,100104.28
2023-02-22T17:12:04.061Z,100095.59
2023-02-22T17:14:34.039Z,100099.03
2023-02-22T17:17:00.663Z,100096.41
2023-02-22T17:19:27.730Z,100098.31
2023-02-22T17:21:54.441Z,100102.00
2023-02-22T17:24:23.520Z,100093.91
2023-02-22T17:26:50.515Z,100097.50
2023-02-22T17:29:17.102Z,100096.84
2023-02-22T17:31:44.352Z,100101.31
2023-02-22T17:34:11.060Z,100101.31
2023-02-22T17:36:38.047Z,100102.34
2023-02-22T17:39:05.501Z,100099.44
2023-02-22T17:41:32.247Z,100099.59
2023-02-22T17:43:59.577Z,100092.75
2023-02-22T17:46:26.407Z,100092.00
2023-02-22T17:48:53.624Z,100095.53
2023-02-22T17:51:22.559Z,100089.53
2023-02-22T17:53:49.165Z,100090.81
2023-02-22T17:56:17.764Z,100096.09
2023-02-22T17:58:49.693Z,100096.94
2023-02-22T18:01:34.370Z,100099.50
2023-02-22T18:04:03.481Z,100095.25
2023-02-22T18:06:31.284Z,100090.09
2023-02-22T18:08:59.618Z,100093.50
2023-02-22T18:11:27.976Z,100091.09
2023-02-22T18:13:58.657Z,100093.88
2023-02-22T18:16:25.861Z,100095.00
2023-02-22T18:18:53.791Z,100096.06
2023-02-22T18:21:20.729Z,100100.41
2023-02-22T18:23:47.564Z,100095.53
2023-02-22T18:26:19.294Z,100098.28
2023-02-22T18:28:46.398Z,100090.41
2023-02-22T18:31:15.350Z,100093.78
2023-02-22T18:33:47.310Z,100092.94
2023-02-22T18:36:14.917Z,100093.06
2023-02-22T18:38:43.549Z,100089.59
2023-02-22T18:41:15.583Z,100093.97
2023-02-22T18:43:43.127Z,100090.16
2023-02-22T18:46:11.807Z,100098.63
2023-02-22T18:48:39.244Z,100093.09
2023-02-22T18:51:09.062Z,100103.44
2023-02-22T18:53:37.540Z,100099.97
2023-02-22T18:56:10.434Z,100103.41
2023-02-22T18:58:37.419Z,100100.31
2023-02-22T19:01:05.977Z,100100.78
2023-02-22T19:03:32.816Z,100098.22
2023-02-22T19:06:03.820Z,100102.78
2023-02-22T19:08:30.470Z,100100.59
2023-02-22T19:11:02.767Z,100101.50
2023-02-22T19:13:29.409Z,100091.28
2023-02-22T19:15:56.109Z,100093.00
2023-02-22T19:18:22.730Z,100092.91
2023-02-22T19:20:58.917Z,100091.47
2023-02-22T19:23:25.591Z,100092.06
2023-02-22T19:25:52.295Z,100105.88
2023-02-22T19:28:19.213Z,100108.69
2023-02-22T19:30:45.982Z,100105.94
2023-02-22T19:33:12.700Z,100113.88
2023-02-22T19:35:39.353Z,100110.59
2023-02-22T19:38:06.002Z,100109.75
2023-02-22T19:40:32.626Z,100104.53
2023-02-22T19:42:59.215Z,100108.19
2023-02-22T19:45:25.912Z,100110.81
2023-02-22T19:47:56.916Z,100117.63
2023-02-22T19:50:23.528Z,100115.88
2023-02-22T19:52:50.201Z,100113.91
2023-02-22T19:55:16.889Z,100115.13
2023-02-22T19:57:45.327Z,100111.03
2023-02-22T20:00:13.546Z,100118.19
2023-02-22T20:02:41.472Z,100112.78
2023-02-22T20:05:10.254Z,100117.09
2023-02-22T20:07:37.293Z,100121.28
2023-02-22T20:10:05.195Z,100118.06
2023-02-22T20:12:31.925Z,100117.47
2023-02-22T20:14:58.547Z,100110.81
2023-02-22T20:17:26.092Z,100114.88
2023-02-22T20:19:53.421Z,100110.84
2023-02-22T20:22:21.291Z,100104.28
2023-02-22T20:24:48.106Z,100102.06
2023-02-22T20:27:17.898Z,100108.81
2023-02-22T20:29:44.510Z,100102.91
2023-02-22T20:32:13.155Z,100111.91
2023-02-22T20:34:40.360Z,100103.50
2023-02-22T20:37:06.959Z,100101.53
2023-02-22T20:39:33.674Z,100103.03
2023-02-22T20:42:00.373Z,100111.03
2023-02-22T20:44:27.057Z,100114.91
2023-02-22T20:46:53.700Z,100111.78
2023-02-22T20:49:20.412Z,100107.56
2023-02-22T20:51:48.307Z,100115.13
2023-02-22T20:54:16.011Z,100115.56
2023-02-22T20:56:44.430Z,100116.47
2023-02-22T20:59:13.177Z,100106.81
2023-02-22T21:01:40.214Z,100113.47
2023-02-22T21:04:08.866Z,100111.72
2023-02-22T21:06:37.837Z,100108.25
2023-02-22T21:09:06.432Z,100104.38
2023-02-22T21:11:33.579Z,100110.00
2023-02-22T21:14:01.423Z,100119.50
2023-02-22T21:16:34.131Z,100124.25
2023-02-22T21:19:03.721Z,100131.34
2023-02-22T21:21:30.500Z,100130.63
2023-02-22T21:23:58.460Z,100126.75
2023-02-22T21:26:27.639Z,100124.50
2023-02-22T21:28:55.726Z,100121.94
2023-02-22T21:31:24.381Z,100116.22
2023-02-22T21:33:55.745Z,100113.56
2023-02-22T21:36:23.216Z,100123.03
2023-02-22T21:38:53.769Z,100125.84
2023-02-22T21:41:22.617Z,100132.09
2023-02-22T21:43:51.194Z,100131.97
2023-02-22T21:46:18.243Z,100135.59
2023-02-22T21:48:45.907Z,100128.59
2023-02-22T21:51:15.636Z,100132.75
2023-02-22T21:53:44.372Z,100141.09
2023-02-22T21:56:11.127Z,100135.88
2023-02-22T21:58:37.752Z,100131.50
2023-02-22T22:01:06.377Z,100132.13
2023-02-22T22:03:33.189Z,100130.25
2023-02-22T22:05:59.827Z,100134.09
2023-02-22T22:08:26.512Z,100136.78
2023-02-22T22:10:56.470Z,100139.56
2023-02-22T22:13:23.481Z,100130.09
2023-02-22T22:15:50.171Z,100130.78
2023-02-22T22:18:16.987Z,100137.78
2023-02-22T22:20:44.266Z,100121.69
2023-02-22T22:23:11.639Z,100124.34
2023-02-22T22:25:38.721Z,100138.63
2023-02-22T22:28:06.734Z,100135.41
2023-02-22T22:30:36.368Z,100131.69
2023-02-22T22:33:04.782Z,100139.66
2023-02-22T22:35:32.745Z,100138.78
2023-02-22T22:38:00.410Z,100138.78
2023-02-22T22:40:27.750Z,100138.28
2023-02-22T22:42:54.467Z,100136.63
2023-02-22T22:45:21.057Z,100139.94
2023-02-22T22:47:47.737Z,100121.44
2023-02-22T22:50:16.495Z,100133.75
2023-02-22T22:52:43.084Z,100136.41
2023-02-22T22:55:09.868Z,100135.00
2023-02-22T22:57:36.736Z,100129.75
2023-02-22T23:00:05.796Z,100127.84
2023-02-22T23:02:32.417Z,100132.41
2023-02-22T23:04:59.069Z,100138.06
2023-02-22T23:07:25.722Z,100139.13
2023-02-22T23:09:52.463Z,100148.69
2023-02-22T23:12:19.155Z,100144.44
2023-02-22T23:14:45.811Z,100143.72
2023-02-22T23:17:16.548Z,100146.44
2023-02-22T23:19:44.841Z,100145.81
2023-02-22T23:22:11.966Z,100152.56
2023-02-22T23:24:38.712Z,100147.38
2023-02-22T23:27:06.918Z,100146.00
2023-02-22T23:29:37.643Z,100145.97
2023-02-22T23:32:04.611Z,100150.19
2023-02-22T23:34:32.477Z,100144.31
2023-02-22T23:36:59.103Z,100146.41
2023-02-22T23:39:25.952Z,100146.22
2023-02-22T23:41:57.098Z,100153.25
2023-02-22T23:44:23.715Z,100156.88
2023-02-22T23:46:50.633Z,100154.34
2023-02-22T23:49:17.385Z,100157.47
2023-02-22T23:51:44.188Z,100144.56
2023-02-22T23:54:13.517Z,100147.41
2023-02-22T23:56:41.622Z,100149.91
2023-02-22T23:59:08.250Z,100143.66
